createdAt,value
2018-01-29T00:01:03.260Z,46.67
2018-01-29T00:03:30.952Z,42.67
2018-01-29T00:05:58.638Z,42.93
2018-01-29T00:08:26.332Z,46.33
2018-01-29T00:10:54.019Z,44.20
2018-01-29T00:13:21.685Z,43.20
2018-01-29T00:15:49.327Z,38.73
2018-01-29T00:18:17.019Z,46.40
2018-01-29T00:20:45.899Z,43.03
2018-01-29T00:23:13.620Z,44.57
2018-01-29T00:25:41.228Z,38.43
2018-01-29T00:28:08.905Z,54.33
2018-01-29T00:30:37.355Z,41.50
2018-01-29T00:33:05.049Z,40.17
2018-01-29T00:35:33.514Z,38.37
2018-01-29T00:38:01.197Z,38.43
2018-01-29T00:40:28.883Z,42.73
2018-01-29T00:42:56.557Z,49.93
2018-01-29T00:45:24.242Z,40.37
2018-01-29T00:47:51.916Z,43.57
2018-01-29T00:50:19.746Z,44.03
2018-01-29T00:52:47.466Z,45.13
2018-01-29T00:55:15.166Z,33.13
2018-01-29T00:57:42.810Z,36.53
2018-01-29T01:00:10.524Z,40.70
2018-01-29T01:02:38.178Z,40.03
2018-01-29T01:05:05.857Z,43.30
2018-01-29T01:07:33.535Z,35.17
2018-01-29T01:10:01.220Z,34.40
2018-01-29T01:12:28.912Z,33.87
2018-01-29T01:14:56.550Z,35.23
2018-01-29T01:17:24.265Z,36.47
2018-01-29T01:19:53.179Z,32.63
2018-01-29T01:22:20.843Z,30.20
2018-01-29T01:24:48.503Z,28.63
2018-01-29T01:27:16.173Z,33.30
2018-01-29T01:29:43.841Z,28.37
2018-01-29T01:32:11.570Z,31.97
2018-01-29T01:34:40.015Z,30.40
2018-01-29T01:37:08.460Z,26.47
2018-01-29T01:39:36.113Z,27.27
2018-01-29T01:42:03.749Z,30.23
2018-01-29T01:44:32.000Z,29.03
2018-01-29T01:47:00.431Z,22.27
2018-01-29T01:49:30.877Z,21.67
2018-01-29T01:51:58.465Z,23.00
2018-01-29T01:54:26.805Z,23.83
2018-01-29T01:56:54.431Z,24.37
2018-01-29T01:59:22.073Z,27.27
2018-01-29T02:01:50.697Z,22.33
2018-01-29T02:04:18.280Z,22.47
2018-01-29T02:06:45.917Z,20.20
2018-01-29T02:09:13.577Z,23.37
2018-01-29T02:11:41.993Z,19.70
2018-01-29T02:14:09.679Z,18.20
2018-01-29T02:16:37.325Z,18.17
2018-01-29T02:19:05.358Z,18.87
2018-01-29T02:21:33.008Z,19.00
2018-01-29T02:24:00.684Z,18.93
2018-01-29T02:26:28.345Z,18.43
2018-01-29T02:28:56.041Z,17.50
2018-01-29T02:31:23.894Z,18.77
2018-01-29T02:33:51.576Z,16.73
2018-01-29T02:36:19.258Z,18.10
2018-01-29T02:38:46.921Z,16.20
2018-01-29T02:41:14.583Z,22.40
2018-01-29T02:43:42.386Z,19.30
2018-01-29T02:46:10.108Z,18.67
2018-01-29T02:48:37.857Z,18.10
2018-01-29T02:51:05.558Z,18.17
2018-01-29T02:53:33.990Z,18.63
2018-01-29T02:56:01.665Z,19.50
2018-01-29T02:58:29.393Z,21.17
2018-01-29T03:00:57.374Z,19.20
2018-01-29T03:03:25.041Z,16.57
2018-01-29T03:05:52.709Z,14.57
2018-01-29T03:08:20.374Z,17.17
2018-01-29T03:10:47.961Z,17.37
2018-01-29T03:13:15.611Z,16.83
2018-01-29T03:15:43.267Z,14.87
2018-01-29T03:18:10.927Z,16.63
2018-01-29T03:20:38.572Z,19.43
2018-01-29T03:23:06.250Z,17.27
2018-01-29T03:25:33.913Z,16.40
2018-01-29T03:28:01.578Z,14.80
2018-01-29T03:30:29.351Z,16.30
2018-01-29T03:32:57.008Z,17.60
2018-01-29T03:35:24.685Z,14.90
2018-01-29T03:37:52.338Z,15.27
2018-01-29T03:40:19.993Z,13.90
2018-01-29T03:42:47.655Z,13.60
2018-01-29T03:45:15.316Z,11.00
2018-01-29T03:47:42.947Z,12.63
2018-01-29T03:50:10.619Z,11.37
2018-01-29T03:52:38.263Z,12.23
2018-01-29T03:55:06.697Z,10.73
2018-01-29T03:57:34.341Z,13.47
2018-01-29T04:00:02.225Z,12.43
2018-01-29T04:02:29.879Z,11.60
2018-01-29T04:04:57.709Z,13.23
2018-01-29T04:07:25.383Z,14.43
2018-01-29T04:09:53.016Z,12.50
2018-01-29T04:12:20.683Z,13.03
2018-01-29T04:14:49.093Z,12.03
2018-01-29T04:17:16.738Z,14.70
2018-01-29T04:19:44.389Z,14.27
2018-01-29T04:22:12.030Z,13.83
2018-01-29T04:24:39.707Z,13.47
2018-01-29T04:27:07.392Z,14.53
2018-01-29T04:29:35.051Z,13.00
2018-01-29T04:32:03.518Z,14.33
2018-01-29T04:34:31.165Z,14.13
2018-01-29T04:36:58.815Z,11.37
2018-01-29T04:39:26.490Z,14.53
2018-01-29T04:41:54.088Z,12.73
2018-01-29T04:44:25.242Z,13.60
2018-01-29T04:46:52.934Z,15.07
2018-01-29T04:49:20.631Z,14.67
2018-01-29T04:51:48.291Z,13.97
2018-01-29T04:54:15.928Z,14.73
2018-01-29T04:56:43.568Z,14.80
2018-01-29T04:59:11.232Z,12.70
2018-01-29T05:01:38.893Z,13.63
2018-01-29T05:04:06.539Z,13.47
2018-01-29T05:06:34.204Z,13.53
2018-01-29T05:09:01.873Z,14.07
2018-01-29T05:11:30.465Z,15.20
2018-01-29T05:13:58.073Z,16.37
2018-01-29T05:16:25.702Z,15.67
2018-01-29T05:18:53.381Z,15.03
2018-01-29T05:21:21.053Z,17.73
2018-01-29T05:23:48.711Z,17.33
2018-01-29T05:26:16.396Z,15.73
2018-01-29T05:28:44.107Z,17.00
2018-01-29T05:31:11.690Z,19.77
2018-01-29T05:33:39.323Z,19.93
2018-01-29T05:36:08.487Z,16.43
2018-01-29T05:38:37.691Z,17.13
2018-01-29T05:41:05.377Z,18.47
2018-01-29T05:43:33.001Z,17.83
2018-01-29T05:46:00.678Z,18.17
2018-01-29T05:48:28.320Z,16.50
2018-01-29T05:50:55.966Z,17.67
2018-01-29T05:53:23.619Z,20.27
2018-01-29T05:55:51.986Z,17.53
2018-01-29T05:58:19.670Z,20.53
2018-01-29T06:00:49.479Z,19.50
2018-01-29T06:03:17.170Z,15.07
2018-01-29T06:05:44.856Z,17.73
2018-01-29T06:08:12.516Z,17.77
2018-01-29T06:10:40.102Z,20.97
2018-01-29T06:13:07.756Z,17.87
2018-01-29T06:15:35.378Z,16.80
2018-01-29T06:18:03.044Z,17.13
2018-01-29T06:20:30.712Z,15.97
2018-01-29T06:22:58.376Z,16.63
2018-01-29T06:25:26.018Z,18.80
2018-01-29T06:27:53.713Z,15.37
2018-01-29T06:30:24.488Z,14.87
2018-01-29T06:32:52.131Z,14.60
2018-01-29T06:35:19.799Z,18.90
2018-01-29T06:37:47.457Z,13.03
2018-01-29T06:40:15.878Z,17.20
2018-01-29T06:42:43.893Z,14.03
2018-01-29T06:45:12.369Z,14.27
2018-01-29T06:47:40.038Z,14.77
2018-01-29T06:50:08.426Z,17.27
2018-01-29T06:52:36.840Z,15.90
2018-01-29T06:55:04.585Z,19.87
2018-01-29T06:57:32.962Z,18.27
2018-01-29T07:00:02.344Z,17.30
2018-01-29T07:02:29.987Z,18.80
2018-01-29T07:04:57.659Z,19.40
2018-01-29T07:07:25.310Z,20.80
2018-01-29T07:09:52.963Z,17.10
2018-01-29T07:12:21.126Z,19.67
2018-01-29T07:14:49.179Z,19.93
2018-01-29T07:17:16.831Z,17.20
2018-01-29T07:19:44.503Z,17.17
2018-01-29T07:22:12.181Z,19.00
2018-01-29T07:24:39.864Z,20.67
2018-01-29T07:27:07.492Z,21.90
2018-01-29T07:29:35.163Z,15.37
2018-01-29T07:32:02.810Z,17.30
2018-01-29T07:34:30.451Z,21.07
2018-01-29T07:36:58.122Z,16.67
2018-01-29T07:39:26.549Z,21.73
2018-01-29T07:41:54.178Z,15.27
2018-01-29T07:44:21.898Z,19.33
2018-01-29T07:46:49.492Z,15.93
2018-01-29T07:49:17.873Z,13.70
2018-01-29T07:51:45.689Z,14.97
2018-01-29T07:54:13.307Z,18.33
2018-01-29T07:56:40.913Z,16.37
2018-01-29T07:59:08.790Z,15.77
2018-01-29T08:01:37.821Z,14.10
2018-01-29T08:04:05.661Z,9.83
2018-01-29T08:06:33.415Z,7.40
2018-01-29T08:09:01.053Z,8.33
2018-01-29T08:11:28.710Z,9.60
2018-01-29T08:13:56.405Z,4.97
2018-01-29T08:16:24.175Z,7.80
2018-01-29T08:18:55.046Z,9.93
2018-01-29T08:21:24.009Z,6.77
2018-01-29T08:23:51.669Z,8.73
2018-01-29T08:26:19.339Z,9.43
2018-01-29T08:28:46.991Z,6.47
2018-01-29T08:31:14.677Z,8.50
2018-01-29T08:33:43.086Z,8.30
2018-01-29T08:36:10.795Z,4.60
2018-01-29T08:38:38.433Z,5.93
2018-01-29T08:41:06.087Z,5.83
2018-01-29T08:43:33.988Z,8.17
2018-01-29T08:46:02.773Z,5.37
2018-01-29T08:48:31.027Z,5.90
2018-01-29T08:50:59.983Z,3.30
2018-01-29T08:53:28.200Z,7.70
2018-01-29T08:55:56.390Z,6.33
2018-01-29T08:58:24.488Z,8.07
2018-01-29T09:00:52.526Z,4.37
2018-01-29T09:03:20.714Z,7.03
2018-01-29T09:05:48.771Z,7.77
2018-01-29T09:08:16.812Z,10.50
2018-01-29T09:10:45.781Z,7.40
2018-01-29T09:13:14.047Z,5.73
2018-01-29T09:15:41.711Z,5.73
2018-01-29T09:18:09.362Z,6.53
2018-01-29T09:20:37.983Z,9.57
2018-01-29T09:23:05.661Z,8.27
2018-01-29T09:25:33.275Z,5.67
2018-01-29T09:28:00.959Z,8.43
2018-01-29T09:30:29.376Z,7.20
2018-01-29T09:32:57.165Z,8.63
2018-01-29T09:35:24.850Z,4.73
2018-01-29T09:37:52.496Z,5.40
2018-01-29T09:40:20.127Z,5.97
2018-01-29T09:42:47.767Z,6.73
2018-01-29T09:45:16.224Z,6.00
2018-01-29T09:47:43.905Z,6.90
2018-01-29T09:50:12.586Z,5.77
2018-01-29T09:52:40.252Z,6.47
2018-01-29T09:55:07.900Z,5.53
2018-01-29T09:57:35.644Z,5.90
2018-01-29T10:00:08.864Z,3.10
2018-01-29T10:02:36.901Z,7.27
2018-01-29T10:05:04.583Z,10.57
2018-01-29T10:07:32.224Z,6.10
2018-01-29T10:10:02.062Z,6.67
2018-01-29T10:12:29.725Z,4.57
2018-01-29T10:14:57.349Z,6.07
2018-01-29T10:17:24.994Z,7.07
2018-01-29T10:19:53.433Z,8.80
2018-01-29T10:22:21.085Z,5.37
2018-01-29T10:24:48.712Z,5.30
2018-01-29T10:27:16.416Z,5.33
2018-01-29T10:29:44.073Z,8.23
2018-01-29T10:32:11.700Z,3.87
2018-01-29T10:34:39.383Z,6.33
2018-01-29T10:37:07.096Z,6.83
2018-01-29T10:39:34.984Z,5.23
2018-01-29T10:42:02.616Z,5.37
2018-01-29T10:44:33.428Z,4.83
2018-01-29T10:47:01.328Z,3.70
2018-01-29T10:49:29.000Z,6.80
2018-01-29T10:51:56.738Z,3.37
2018-01-29T10:54:24.389Z,7.30
2018-01-29T10:56:52.058Z,4.87
2018-01-29T10:59:19.718Z,5.43
2018-01-29T11:01:53.995Z,4.63
2018-01-29T11:04:21.745Z,6.40
2018-01-29T11:06:50.159Z,4.70
2018-01-29T11:09:17.806Z,5.67
2018-01-29T11:11:45.448Z,7.10
2018-01-29T11:14:13.870Z,3.23
2018-01-29T11:16:41.550Z,4.47
2018-01-29T11:19:09.240Z,6.67
2018-01-29T11:21:36.897Z,5.20
2018-01-29T11:24:04.661Z,5.07
2018-01-29T11:26:32.342Z,5.23
2018-01-29T11:29:00.029Z,5.77
2018-01-29T11:31:30.612Z,3.20
2018-01-29T11:33:58.219Z,4.50
2018-01-29T11:36:25.857Z,6.73
2018-01-29T11:38:53.543Z,3.57
2018-01-29T11:41:21.935Z,6.00
2018-01-29T11:43:49.594Z,6.87
2018-01-29T11:46:17.304Z,6.00
2018-01-29T11:48:45.031Z,7.80
2018-01-29T11:51:12.678Z,8.07
2018-01-29T11:53:41.133Z,8.23
2018-01-29T11:56:08.792Z,10.17
2018-01-29T11:58:36.461Z,5.23
2018-01-29T12:01:06.266Z,7.70
2018-01-29T12:03:33.936Z,6.47
2018-01-29T12:06:01.572Z,5.90
2018-01-29T12:08:29.226Z,7.50
2018-01-29T12:10:56.901Z,9.50
2018-01-29T12:13:24.558Z,4.70
2018-01-29T12:15:52.235Z,6.13
2018-01-29T12:18:19.891Z,6.10
2018-01-29T12:20:47.539Z,4.23
2018-01-29T12:23:15.232Z,3.70
2018-01-29T12:25:42.845Z,5.80
2018-01-29T12:28:10.525Z,5.50
2018-01-29T12:30:39.436Z,4.47
2018-01-29T12:33:07.084Z,7.30
2018-01-29T12:35:34.835Z,2.73
2018-01-29T12:38:02.492Z,5.47
2018-01-29T12:40:30.088Z,4.93
2018-01-29T12:42:57.752Z,5.70
2018-01-29T12:45:25.408Z,2.80
2018-01-29T12:47:53.079Z,7.50
2018-01-29T12:50:20.786Z,7.00
2018-01-29T12:52:48.454Z,6.00
2018-01-29T12:55:16.082Z,6.60
2018-01-29T12:57:44.040Z,4.00
2018-01-29T13:00:12.863Z,4.53
2018-01-29T13:02:46.621Z,6.60
2018-01-29T13:05:14.483Z,8.77
2018-01-29T13:07:42.155Z,10.40
2018-01-29T13:10:09.818Z,6.77
2018-01-29T13:12:37.545Z,7.93
2018-01-29T13:15:06.047Z,11.53
2018-01-29T13:17:33.720Z,11.33
2018-01-29T13:20:01.415Z,8.30
2018-01-29T13:22:29.043Z,9.83
2018-01-29T13:24:56.695Z,9.27
2018-01-29T13:27:24.361Z,7.57
2018-01-29T13:29:55.332Z,13.60
2018-01-29T13:32:23.146Z,11.33
2018-01-29T13:34:51.616Z,9.60
2018-01-29T13:37:19.264Z,11.23
2018-01-29T13:39:47.226Z,8.30
2018-01-29T13:42:15.076Z,6.43
2018-01-29T13:44:42.744Z,9.97
2018-01-29T13:47:10.396Z,6.17
2018-01-29T13:49:38.056Z,6.90
2018-01-29T13:52:05.733Z,6.20
2018-01-29T13:54:33.395Z,6.03
2018-01-29T13:57:01.014Z,6.70
2018-01-29T13:59:29.415Z,9.43
2018-01-29T14:01:57.084Z,4.67
2018-01-29T14:04:24.748Z,4.37
2018-01-29T14:06:52.410Z,6.40
2018-01-29T14:09:20.052Z,12.47
2018-01-29T14:11:47.655Z,9.97
2018-01-29T14:14:15.298Z,7.67
2018-01-29T14:16:42.920Z,6.73
2018-01-29T14:19:10.603Z,7.13
2018-01-29T14:21:38.650Z,9.20
2018-01-29T14:24:06.350Z,7.70
2018-01-29T14:26:33.922Z,7.57
2018-01-29T14:29:01.571Z,13.80
2018-01-29T14:31:29.204Z,7.97
2018-01-29T14:33:56.839Z,7.77
2018-01-29T14:36:24.513Z,11.20
2018-01-29T14:38:52.232Z,11.93
2018-01-29T14:41:19.874Z,7.67
2018-01-29T14:43:48.310Z,8.47
2018-01-29T14:46:15.955Z,10.33
2018-01-29T14:48:43.624Z,10.70
2018-01-29T14:51:12.450Z,11.37
2018-01-29T14:53:40.082Z,10.03
2018-01-29T14:56:07.920Z,10.33
2018-01-29T14:58:35.653Z,12.63
2018-01-29T15:01:03.311Z,8.80
2018-01-29T15:03:30.891Z,12.67
2018-01-29T15:05:58.561Z,11.30
2018-01-29T15:08:26.241Z,12.00
2018-01-29T15:10:53.890Z,11.50
2018-01-29T15:13:21.716Z,11.10
2018-01-29T15:15:49.326Z,9.00
2018-01-29T15:18:16.981Z,13.50
2018-01-29T15:20:47.664Z,8.80
2018-01-29T15:23:15.311Z,9.40
2018-01-29T15:25:42.981Z,10.30
2018-01-29T15:28:10.696Z,12.13
2018-01-29T15:30:39.109Z,10.53
2018-01-29T15:33:06.748Z,9.07
2018-01-29T15:35:35.763Z,10.13
2018-01-29T15:38:04.399Z,10.77
2018-01-29T15:40:32.031Z,10.37
2018-01-29T15:43:00.142Z,8.47
2018-01-29T15:45:28.556Z,10.13
2018-01-29T15:47:56.197Z,11.40
2018-01-29T15:50:25.052Z,10.13
2018-01-29T15:52:52.722Z,7.00
2018-01-29T15:55:20.380Z,8.97
2018-01-29T15:57:48.013Z,11.20
2018-01-29T16:00:15.758Z,10.90
2018-01-29T16:02:43.454Z,13.20
2018-01-29T16:05:15.074Z,11.63
2018-01-29T16:07:43.160Z,12.53
2018-01-29T16:10:10.814Z,15.47
2018-01-29T16:12:38.472Z,14.17
2018-01-29T16:15:06.164Z,13.23
2018-01-29T16:17:33.845Z,16.40
2018-01-29T16:20:01.506Z,13.30
2018-01-29T16:22:29.166Z,15.03
2018-01-29T16:24:56.853Z,15.23
2018-01-29T16:27:24.476Z,14.93
2018-01-29T16:29:52.131Z,19.73
2018-01-29T16:32:19.779Z,18.00
2018-01-29T16:34:47.462Z,17.87
2018-01-29T16:37:15.107Z,17.20
2018-01-29T16:39:43.670Z,17.80
2018-01-29T16:42:12.114Z,13.47
2018-01-29T16:44:39.780Z,18.40
2018-01-29T16:47:07.428Z,15.77
2018-01-29T16:49:35.997Z,13.50
2018-01-29T16:52:03.675Z,13.67
2018-01-29T16:54:31.320Z,14.90
2018-01-29T16:56:58.951Z,11.30
2018-01-29T16:59:26.592Z,10.80
2018-01-29T17:01:55.517Z,12.30
2018-01-29T17:04:23.184Z,11.00
2018-01-29T17:06:50.855Z,10.07
2018-01-29T17:09:18.529Z,10.20
2018-01-29T17:11:46.167Z,10.03
2018-01-29T17:14:14.605Z,10.20
2018-01-29T17:16:42.289Z,10.30
2018-01-29T17:19:09.988Z,9.30
2018-01-29T17:21:37.616Z,9.27
2018-01-29T17:24:05.257Z,8.23
2018-01-29T17:26:32.926Z,8.30
2018-01-29T17:29:00.571Z,8.33
2018-01-29T17:31:28.345Z,8.53
2018-01-29T17:33:56.006Z,8.40
2018-01-29T17:36:23.698Z,7.10
2018-01-29T17:38:52.125Z,6.73
2018-01-29T17:41:19.801Z,6.73
2018-01-29T17:43:47.455Z,7.87
2018-01-29T17:46:15.117Z,8.77
2018-01-29T17:48:43.548Z,9.50
2018-01-29T17:51:11.193Z,9.53
2018-01-29T17:53:39.226Z,10.37
2018-01-29T17:56:06.877Z,10.63
2018-01-29T17:58:34.517Z,13.97
2018-01-29T18:01:04.317Z,12.90
2018-01-29T18:03:31.972Z,13.73
2018-01-29T18:05:59.631Z,11.47
2018-01-29T18:08:27.323Z,12.67
2018-01-29T18:10:54.968Z,9.87
2018-01-29T18:13:22.641Z,10.40
2018-01-29T18:15:50.308Z,10.90
2018-01-29T18:18:18.716Z,7.40
2018-01-29T18:20:46.376Z,8.53
2018-01-29T18:23:14.031Z,8.07
2018-01-29T18:25:41.729Z,8.40
2018-01-29T18:28:09.309Z,6.90
2018-01-29T18:30:37.132Z,7.77
2018-01-29T18:33:05.444Z,7.40
2018-01-29T18:35:33.030Z,9.63
2018-01-29T18:38:00.713Z,3.20
2018-01-29T18:40:29.159Z,3.13
2018-01-29T18:42:56.835Z,2.33
2018-01-29T18:45:24.477Z,2.00
2018-01-29T18:47:52.323Z,2.67
2018-01-29T18:50:19.977Z,2.70
2018-01-29T18:52:47.648Z,2.50
2018-01-29T18:55:15.293Z,3.53
2018-01-29T18:57:42.953Z,2.03
2018-01-29T19:00:12.816Z,3.00
2018-01-29T19:02:40.658Z,2.97
2018-01-29T19:05:08.302Z,3.00
2018-01-29T19:07:35.971Z,2.33
2018-01-29T19:10:03.660Z,4.73
2018-01-29T19:12:31.326Z,3.77
2018-01-29T19:14:59.005Z,3.37
2018-01-29T19:17:26.590Z,3.23
2018-01-29T19:19:54.189Z,3.03
2018-01-29T19:22:21.840Z,2.63
2018-01-29T19:24:49.499Z,2.57
2018-01-29T19:27:18.207Z,2.20
2018-01-29T19:29:46.018Z,1.47
2018-01-29T19:32:13.670Z,1.10
2018-01-29T19:34:41.338Z,1.90
2018-01-29T19:37:08.987Z,0.97
2018-01-29T19:39:36.652Z,1.20
2018-01-29T19:42:04.381Z,2.00
2018-01-29T19:44:32.043Z,2.87
2018-01-29T19:46:59.666Z,0.93
2018-01-29T19:49:27.364Z,0.97
2018-01-29T19:52:01.004Z,1.73
2018-01-29T19:54:28.645Z,0.93
2018-01-29T19:56:56.314Z,1.77
2018-01-29T19:59:23.976Z,3.47
2018-01-29T20:01:51.651Z,2.13
2018-01-29T20:04:19.281Z,1.00
2018-01-29T20:06:46.936Z,3.00
2018-01-29T20:09:14.586Z,2.93
2018-01-29T20:11:42.263Z,2.20
2018-01-29T20:14:10.695Z,2.80
2018-01-29T20:16:38.409Z,3.20
2018-01-29T20:19:06.048Z,4.13
2018-01-29T20:21:36.645Z,5.43
2018-01-29T20:24:05.227Z,2.03
2018-01-29T20:26:32.900Z,3.23
2018-01-29T20:29:00.571Z,2.80
2018-01-29T20:31:28.254Z,4.37
2018-01-29T20:33:55.901Z,3.43
2018-01-29T20:36:23.558Z,2.27
2018-01-29T20:38:51.257Z,2.87
2018-01-29T20:41:18.927Z,5.93
2018-01-29T20:43:46.547Z,5.13
2018-01-29T20:46:14.194Z,5.80
2018-01-29T20:48:41.852Z,4.50
2018-01-29T20:51:10.473Z,4.40
2018-01-29T20:53:38.132Z,7.23
2018-01-29T20:56:05.791Z,4.13
2018-01-29T20:58:33.475Z,10.07
2018-01-29T21:01:01.103Z,5.07
2018-01-29T21:03:28.757Z,4.67
2018-01-29T21:05:56.395Z,4.17
2018-01-29T21:08:24.037Z,4.67
2018-01-29T21:10:51.700Z,7.80
2018-01-29T21:13:20.136Z,7.10
2018-01-29T21:15:47.817Z,9.30
2018-01-29T21:18:15.484Z,6.17
2018-01-29T21:20:44.069Z,2.83
2018-01-29T21:23:11.737Z,8.57
2018-01-29T21:25:39.405Z,4.57
2018-01-29T21:28:07.123Z,5.43
2018-01-29T21:30:34.756Z,6.53
2018-01-29T21:33:02.452Z,6.50
2018-01-29T21:35:30.103Z,8.47
2018-01-29T21:37:57.756Z,4.57
2018-01-29T21:40:25.447Z,7.73
2018-01-29T21:42:53.106Z,7.13
2018-01-29T21:45:20.733Z,7.73
2018-01-29T21:47:49.150Z,9.17
2018-01-29T21:50:17.696Z,6.13
2018-01-29T21:52:45.365Z,10.73
2018-01-29T21:55:12.999Z,7.67
2018-01-29T21:57:42.339Z,5.83
2018-01-29T22:00:13.181Z,9.13
2018-01-29T22:02:40.862Z,10.10
2018-01-29T22:05:08.633Z,8.60
2018-01-29T22:07:36.419Z,13.07
2018-01-29T22:10:07.297Z,8.83
2018-01-29T22:12:34.987Z,9.17
2018-01-29T22:15:03.364Z,5.20
2018-01-29T22:17:31.051Z,10.40
2018-01-29T22:19:58.707Z,12.80
2018-01-29T22:22:26.294Z,8.10
2018-01-29T22:24:54.006Z,7.37
2018-01-29T22:27:21.655Z,11.03
2018-01-29T22:29:50.051Z,7.67
2018-01-29T22:32:18.576Z,7.27
2018-01-29T22:34:46.256Z,7.50
2018-01-29T22:37:13.926Z,9.33
2018-01-29T22:39:42.354Z,9.73
2018-01-29T22:42:09.998Z,14.80
2018-01-29T22:44:37.662Z,11.53
2018-01-29T22:47:05.308Z,9.97
2018-01-29T22:49:33.748Z,7.67
2018-01-29T22:52:01.401Z,10.17
2018-01-29T22:54:29.082Z,9.63
2018-01-29T22:56:56.712Z,9.97
2018-01-29T22:59:24.378Z,13.83
2018-01-29T23:01:52.254Z,10.73
2018-01-29T23:04:19.879Z,8.43
2018-01-29T23:06:47.530Z,8.03
2018-01-29T23:09:15.204Z,10.00
2018-01-29T23:11:44.168Z,9.67
2018-01-29T23:14:11.800Z,10.60
2018-01-29T23:16:39.456Z,11.93
2018-01-29T23:19:07.087Z,10.73
2018-01-29T23:21:34.760Z,13.20
2018-01-29T23:24:02.418Z,9.53
2018-01-29T23:26:30.074Z,11.87
2018-01-29T23:28:57.700Z,12.33
2018-01-29T23:31:28.461Z,7.90
2018-01-29T23:33:56.907Z,10.20
2018-01-29T23:36:24.491Z,6.50
2018-01-29T23:38:52.143Z,10.00
2018-01-29T23:41:19.811Z,13.30
2018-01-29T23:43:47.473Z,18.83
2018-01-29T23:46:15.132Z,11.37
2018-01-29T23:48:43.141Z,13.70
2018-01-29T23:51:10.799Z,11.57
2018-01-29T23:53:38.468Z,13.73
2018-01-29T23:56:06.144Z,12.63
2018-01-29T23:58:33.845Z,9.73
